sensor_id;sensor_type;location;lat;lon;timestamp;temperature;humidity
3638;DHT22;1835;50.068;8.154;2022-12-07T00:01:35;3.20;99.90
3638;DHT22;1835;50.068;8.154;2022-12-07T00:04:08;3.10;99.90
3638;DHT22;1835;50.068;8.154;2022-12-07T00:06:39;2.90;99.90
3638;DHT22;1835;50.068;8.154;2022-12-07T00:09:11;2.80;99.90
3638;DHT22;1835;50.068;8.154;2022-12-07T00:11:42;2.80;99.90
3638;DHT22;1835;50.068;8.154;2022-12-07T00:14:13;2.80;99.90
3638;DHT22;1835;50.068;8.154;2022-12-07T00:16:44;2.90;99.90
3638;DHT22;1835;50.068;8.154;2022-12-07T00:19:13;3.00;99.90
3638;DHT22;1835;50.068;8.154;2022-12-07T00:21:42;3.10;99.90
3638;DHT22;1835;50.068;8.154;2022-12-07T00:24:12;3.40;99.90
3638;DHT22;1835;50.068;8.154;2022-12-07T00:26:41;3.40;99.90
3638;DHT22;1835;50.068;8.154;2022-12-07T00:29:15;3.30;99.90
3638;DHT22;1835;50.068;8.154;2022-12-07T00:31:44;3.50;99.90
3638;DHT22;1835;50.068;8.154;2022-12-07T00:34:17;3.40;99.90
3638;DHT22;1835;50.068;8.154;2022-12-07T00:36:47;3.20;99.90
3638;DHT22;1835;50.068;8.154;2022-12-07T00:39:20;3.20;99.90
3638;DHT22;1835;50.068;8.154;2022-12-07T00:41:48;3.20;99.90
3638;DHT22;1835;50.068;8.154;2022-12-07T00:44:16;3.10;99.90
3638;DHT22;1835;50.068;8.154;2022-12-07T00:46:44;3.00;99.90
3638;DHT22;1835;50.068;8.154;2022-12-07T00:49:13;2.90;99.90
3638;DHT22;1835;50.068;8.154;2022-12-07T00:51:40;2.90;99.90
3638;DHT22;1835;50.068;8.154;2022-12-07T00:54:09;2.80;99.90
3638;DHT22;1835;50.068;8.154;2022-12-07T00:56:38;2.80;99.90
3638;DHT22;1835;50.068;8.154;2022-12-07T00:59:12;2.80;99.90
3638;DHT22;1835;50.068;8.154;2022-12-07T01:01:42;3.00;99.90
3638;DHT22;1835;50.068;8.154;2022-12-07T01:04:10;3.00;99.90
3638;DHT22;1835;50.068;8.154;2022-12-07T01:06:38;2.90;99.90
3638;DHT22;1835;50.068;8.154;2022-12-07T01:09:06;2.90;99.90
3638;DHT22;1835;50.068;8.154;2022-12-07T01:11:35;2.90;99.90
3638;DHT22;1835;50.068;8.154;2022-12-07T01:14:04;2.90;99.90
3638;DHT22;1835;50.068;8.154;2022-12-07T01:16:33;2.90;99.90
3638;DHT22;1835;50.068;8.154;2022-12-07T01:19:02;3.10;99.90
3638;DHT22;1835;50.068;8.154;2022-12-07T01:21:33;3.10;99.90
3638;DHT22;1835;50.068;8.154;2022-12-07T01:24:05;3.10;99.90
3638;DHT22;1835;50.068;8.154;2022-12-07T01:26:34;3.00;99.90
3638;DHT22;1835;50.068;8.154;2022-12-07T01:29:04;2.90;99.90
3638;DHT22;1835;50.068;8.154;2022-12-07T01:31:32;2.90;99.90
3638;DHT22;1835;50.068;8.154;2022-12-07T01:34:01;3.10;99.90
3638;DHT22;1835;50.068;8.154;2022-12-07T01:36:31;3.10;99.90
3638;DHT22;1835;50.068;8.154;2022-12-07T01:39:02;2.80;99.90
3638;DHT22;1835;50.068;8.154;2022-12-07T01:41:34;2.90;99.90
3638;DHT22;1835;50.068;8.154;2022-12-07T01:44:19;2.90;99.90
3638;DHT22;1835;50.068;8.154;2022-12-07T01:46:50;3.10;99.90
3638;DHT22;1835;50.068;8.154;2022-12-07T01:49:23;3.00;99.90
3638;DHT22;1835;50.068;8.154;2022-12-07T01:52:04;3.00;99.90
3638;DHT22;1835;50.068;8.154;2022-12-07T01:54:36;3.00;99.90
3638;DHT22;1835;50.068;8.154;2022-12-07T01:57:06;3.00;99.90
3638;DHT22;1835;50.068;8.154;2022-12-07T01:59:38;3.00;99.90
3638;DHT22;1835;50.068;8.154;2022-12-07T02:02:10;3.00;99.90
3638;DHT22;1835;50.068;8.154;2022-12-07T02:04:45;3.00;99.90
3638;DHT22;1835;50.068;8.154;2022-12-07T02:07:13;3.00;99.90
3638;DHT22;1835;50.068;8.154;2022-12-07T02:09:42;3.10;99.90
3638;DHT22;1835;50.068;8.154;2022-12-07T02:12:10;3.10;99.90
3638;DHT22;1835;50.068;8.154;2022-12-07T02:14:39;3.30;99.90
3638;DHT22;1835;50.068;8.154;2022-12-07T02:17:14;3.20;99.90
3638;DHT22;1835;50.068;8.154;2022-12-07T02:26:29;3.20;99.90
3638;DHT22;1835;50.068;8.154;2022-12-07T02:29:24;3.20;99.90
3638;DHT22;1835;50.068;8.154;2022-12-07T02:32:02;3.20;99.90
3638;DHT22;1835;50.068;8.154;2022-12-07T02:34:41;3.30;99.90
3638;DHT22;1835;50.068;8.154;2022-12-07T02:37:21;3.30;99.90
3638;DHT22;1835;50.068;8.154;2022-12-07T02:40:00;3.30;99.90
3638;DHT22;1835;50.068;8.154;2022-12-07T02:42:35;3.50;99.90
3638;DHT22;1835;50.068;8.154;2022-12-07T02:45:07;3.60;99.90
3638;DHT22;1835;50.068;8.154;2022-12-07T02:47:39;3.50;99.90
3638;DHT22;1835;50.068;8.154;2022-12-07T02:50:08;3.60;99.90
3638;DHT22;1835;50.068;8.154;2022-12-07T02:52:37;3.70;99.90
3638;DHT22;1835;50.068;8.154;2022-12-07T02:55:06;3.70;99.90
3638;DHT22;1835;50.068;8.154;2022-12-07T02:57:45;3.70;99.90
3638;DHT22;1835;50.068;8.154;2022-12-07T03:00:22;3.90;99.90
3638;DHT22;1835;50.068;8.154;2022-12-07T03:02:54;4.00;99.90
3638;DHT22;1835;50.068;8.154;2022-12-07T03:05:53;4.00;99.90
3638;DHT22;1835;50.068;8.154;2022-12-07T03:08:34;3.90;99.90
3638;DHT22;1835;50.068;8.154;2022-12-07T03:11:08;3.90;99.90
3638;DHT22;1835;50.068;8.154;2022-12-07T03:13:41;4.10;99.90
3638;DHT22;1835;50.068;8.154;2022-12-07T03:16:15;4.10;99.90
3638;DHT22;1835;50.068;8.154;2022-12-07T03:18:47;4.20;99.90
3638;DHT22;1835;50.068;8.154;2022-12-07T03:21:20;4.40;99.90
3638;DHT22;1835;50.068;8.154;2022-12-07T03:23:53;4.30;99.90
3638;DHT22;1835;50.068;8.154;2022-12-07T03:26:28;4.20;99.90
3638;DHT22;1835;50.068;8.154;2022-12-07T03:29:06;4.20;99.90
3638;DHT22;1835;50.068;8.154;2022-12-07T03:31:42;4.20;99.90
3638;DHT22;1835;50.068;8.154;2022-12-07T03:34:16;4.30;99.90
3638;DHT22;1835;50.068;8.154;2022-12-07T03:36:50;4.50;99.90
3638;DHT22;1835;50.068;8.154;2022-12-07T03:39:24;4.50;99.90
3638;DHT22;1835;50.068;8.154;2022-12-07T03:41:59;4.60;99.90
3638;DHT22;1835;50.068;8.154;2022-12-07T03:44:28;4.60;99.90
3638;DHT22;1835;50.068;8.154;2022-12-07T03:47:02;4.80;99.90
3638;DHT22;1835;50.068;8.154;2022-12-07T03:49:39;4.80;99.90
3638;DHT22;1835;50.068;8.154;2022-12-07T03:52:15;4.50;99.90
3638;DHT22;1835;50.068;8.154;2022-12-07T03:54:51;4.40;99.90
3638;DHT22;1835;50.068;8.154;2022-12-07T03:57:25;4.50;99.90
3638;DHT22;1835;50.068;8.154;2022-12-07T03:59:55;4.60;99.90
3638;DHT22;1835;50.068;8.154;2022-12-07T04:02:27;4.40;99.90
3638;DHT22;1835;50.068;8.154;2022-12-07T04:04:56;4.60;99.90
3638;DHT22;1835;50.068;8.154;2022-12-07T04:07:24;4.60;99.90
3638;DHT22;1835;50.068;8.154;2022-12-07T04:09:52;4.70;99.90
3638;DHT22;1835;50.068;8.154;2022-12-07T04:12:21;4.70;99.90
3638;DHT22;1835;50.068;8.154;2022-12-07T04:14:49;4.70;99.90
3638;DHT22;1835;50.068;8.154;2022-12-07T04:17:17;4.60;99.90
3638;DHT22;1835;50.068;8.154;2022-12-07T04:19:47;4.50;99.90
3638;DHT22;1835;50.068;8.154;2022-12-07T04:22:15;4.40;99.90
3638;DHT22;1835;50.068;8.154;2022-12-07T04:24:43;4.40;99.90
3638;DHT22;1835;50.068;8.154;2022-12-07T04:27:11;4.40;99.90
3638;DHT22;1835;50.068;8.154;2022-12-07T04:29:39;4.40;99.90
3638;DHT22;1835;50.068;8.154;2022-12-07T04:32:07;4.40;99.90
3638;DHT22;1835;50.068;8.154;2022-12-07T04:34:36;4.50;99.90
3638;DHT22;1835;50.068;8.154;2022-12-07T04:37:05;4.60;99.90
3638;DHT22;1835;50.068;8.154;2022-12-07T04:39:33;4.60;99.90
3638;DHT22;1835;50.068;8.154;2022-12-07T04:42:02;4.70;99.90
3638;DHT22;1835;50.068;8.154;2022-12-07T04:44:30;4.90;99.90
3638;DHT22;1835;50.068;8.154;2022-12-07T04:46:58;5.00;99.90
3638;DHT22;1835;50.068;8.154;2022-12-07T04:49:26;5.10;99.90
3638;DHT22;1835;50.068;8.154;2022-12-07T04:51:54;5.10;99.90
3638;DHT22;1835;50.068;8.154;2022-12-07T04:54:24;5.10;99.90
3638;DHT22;1835;50.068;8.154;2022-12-07T04:56:52;5.00;99.90
3638;DHT22;1835;50.068;8.154;2022-12-07T04:59:20;5.10;99.90
3638;DHT22;1835;50.068;8.154;2022-12-07T05:01:48;5.10;99.90
3638;DHT22;1835;50.068;8.154;2022-12-07T05:04:16;4.90;99.90
3638;DHT22;1835;50.068;8.154;2022-12-07T05:06:44;4.80;99.90
3638;DHT22;1835;50.068;8.154;2022-12-07T05:09:13;4.60;99.90
3638;DHT22;1835;50.068;8.154;2022-12-07T05:11:42;4.70;99.90
3638;DHT22;1835;50.068;8.154;2022-12-07T05:14:13;4.70;99.90
3638;DHT22;1835;50.068;8.154;2022-12-07T05:16:44;4.70;99.90
3638;DHT22;1835;50.068;8.154;2022-12-07T05:19:14;4.60;99.90
3638;DHT22;1835;50.068;8.154;2022-12-07T05:21:45;4.80;99.90
3638;DHT22;1835;50.068;8.154;2022-12-07T05:24:14;4.70;99.90
3638;DHT22;1835;50.068;8.154;2022-12-07T05:26:44;4.70;99.90
3638;DHT22;1835;50.068;8.154;2022-12-07T05:29:14;4.60;99.90
3638;DHT22;1835;50.068;8.154;2022-12-07T05:31:44;4.60;99.90
3638;DHT22;1835;50.068;8.154;2022-12-07T05:34:12;4.80;99.90
3638;DHT22;1835;50.068;8.154;2022-12-07T05:36:40;4.90;99.90
3638;DHT22;1835;50.068;8.154;2022-12-07T05:39:08;4.90;99.90
3638;DHT22;1835;50.068;8.154;2022-12-07T05:41:36;5.30;99.90
3638;DHT22;1835;50.068;8.154;2022-12-07T05:44:23;5.40;99.90
3638;DHT22;1835;50.068;8.154;2022-12-07T05:46:51;5.20;99.90
3638;DHT22;1835;50.068;8.154;2022-12-07T05:49:19;5.10;99.90
3638;DHT22;1835;50.068;8.154;2022-12-07T05:51:48;5.30;99.90
3638;DHT22;1835;50.068;8.154;2022-12-07T05:54:16;5.40;99.90
3638;DHT22;1835;50.068;8.154;2022-12-07T05:56:44;5.30;99.90
3638;DHT22;1835;50.068;8.154;2022-12-07T05:59:12;5.30;99.90
3638;DHT22;1835;50.068;8.154;2022-12-07T06:01:56;5.30;99.90
3638;DHT22;1835;50.068;8.154;2022-12-07T06:04:26;5.40;99.90
3638;DHT22;1835;50.068;8.154;2022-12-07T06:06:55;5.50;99.90
3638;DHT22;1835;50.068;8.154;2022-12-07T06:09:25;5.40;99.90
3638;DHT22;1835;50.068;8.154;2022-12-07T06:11:54;5.10;99.90
3638;DHT22;1835;50.068;8.154;2022-12-07T06:14:42;5.30;99.90
3638;DHT22;1835;50.068;8.154;2022-12-07T06:17:13;5.20;99.90
3638;DHT22;1835;50.068;8.154;2022-12-07T06:19:41;5.10;99.90
3638;DHT22;1835;50.068;8.154;2022-12-07T06:22:10;4.90;99.90
3638;DHT22;1835;50.068;8.154;2022-12-07T06:24:38;4.70;99.90
3638;DHT22;1835;50.068;8.154;2022-12-07T06:27:07;4.60;99.90
3638;DHT22;1835;50.068;8.154;2022-12-07T06:29:35;4.80;99.90
3638;DHT22;1835;50.068;8.154;2022-12-07T06:32:04;4.70;99.90
3638;DHT22;1835;50.068;8.154;2022-12-07T06:34:34;4.40;99.90
3638;DHT22;1835;50.068;8.154;2022-12-07T06:37:02;4.40;99.90
3638;DHT22;1835;50.068;8.154;2022-12-07T06:39:30;4.20;99.90
3638;DHT22;1835;50.068;8.154;2022-12-07T06:41:58;4.10;99.90
3638;DHT22;1835;50.068;8.154;2022-12-07T06:44:26;4.10;99.90
3638;DHT22;1835;50.068;8.154;2022-12-07T06:46:54;3.90;99.90
3638;DHT22;1835;50.068;8.154;2022-12-07T06:49:47;3.80;99.90
3638;DHT22;1835;50.068;8.154;2022-12-07T06:52:15;3.70;99.90
3638;DHT22;1835;50.068;8.154;2022-12-07T06:54:42;3.70;99.90
3638;DHT22;1835;50.068;8.154;2022-12-07T06:57:11;3.60;99.90
3638;DHT22;1835;50.068;8.154;2022-12-07T06:59:39;3.70;99.90
3638;DHT22;1835;50.068;8.154;2022-12-07T07:02:08;3.60;99.90
3638;DHT22;1835;50.068;8.154;2022-12-07T07:04:36;3.60;99.90
3638;DHT22;1835;50.068;8.154;2022-12-07T07:07:06;3.60;99.90
3638;DHT22;1835;50.068;8.154;2022-12-07T07:09:34;3.50;99.90
3638;DHT22;1835;50.068;8.154;2022-12-07T07:12:02;3.50;99.90
3638;DHT22;1835;50.068;8.154;2022-12-07T07:14:30;3.60;99.90
3638;DHT22;1835;50.068;8.154;2022-12-07T07:16:59;3.70;99.90
3638;DHT22;1835;50.068;8.154;2022-12-07T07:19:27;3.70;99.90
3638;DHT22;1835;50.068;8.154;2022-12-07T07:21:55;3.70;99.90
3638;DHT22;1835;50.068;8.154;2022-12-07T07:24:24;3.60;99.90
3638;DHT22;1835;50.068;8.154;2022-12-07T07:26:52;3.70;99.90
3638;DHT22;1835;50.068;8.154;2022-12-07T07:29:20;3.60;99.90
3638;DHT22;1835;50.068;8.154;2022-12-07T07:31:48;3.80;99.90
3638;DHT22;1835;50.068;8.154;2022-12-07T07:34:16;3.70;99.90
3638;DHT22;1835;50.068;8.154;2022-12-07T07:36:45;3.60;99.90
3638;DHT22;1835;50.068;8.154;2022-12-07T07:39:13;3.50;99.90
3638;DHT22;1835;50.068;8.154;2022-12-07T07:41:42;3.40;99.90
3638;DHT22;1835;50.068;8.154;2022-12-07T07:44:11;3.50;99.90
3638;DHT22;1835;50.068;8.154;2022-12-07T07:46:39;3.40;99.90
3638;DHT22;1835;50.068;8.154;2022-12-07T07:49:08;3.30;99.90
3638;DHT22;1835;50.068;8.154;2022-12-07T07:51:37;3.20;99.90
3638;DHT22;1835;50.068;8.154;2022-12-07T07:54:05;3.00;99.90
3638;DHT22;1835;50.068;8.154;2022-12-07T07:56:33;2.70;99.90
3638;DHT22;1835;50.068;8.154;2022-12-07T07:59:03;2.70;99.90
3638;DHT22;1835;50.068;8.154;2022-12-07T08:01:31;2.80;99.90
3638;DHT22;1835;50.068;8.154;2022-12-07T08:03:59;2.90;99.90
3638;DHT22;1835;50.068;8.154;2022-12-07T08:06:27;2.90;99.90
3638;DHT22;1835;50.068;8.154;2022-12-07T08:08:58;3.10;99.90
3638;DHT22;1835;50.068;8.154;2022-12-07T08:11:26;3.10;99.90
3638;DHT22;1835;50.068;8.154;2022-12-07T08:13:54;3.00;99.90
3638;DHT22;1835;50.068;8.154;2022-12-07T08:16:24;3.10;99.90
3638;DHT22;1835;50.068;8.154;2022-12-07T08:18:52;3.10;99.90
3638;DHT22;1835;50.068;8.154;2022-12-07T08:21:20;3.20;99.90
3638;DHT22;1835;50.068;8.154;2022-12-07T08:23:48;3.10;99.90
3638;DHT22;1835;50.068;8.154;2022-12-07T08:26:16;3.10;99.90
3638;DHT22;1835;50.068;8.154;2022-12-07T08:28:45;3.20;99.90
3638;DHT22;1835;50.068;8.154;2022-12-07T08:31:15;3.10;99.90
3638;DHT22;1835;50.068;8.154;2022-12-07T08:33:47;3.20;99.90
3638;DHT22;1835;50.068;8.154;2022-12-07T08:36:16;3.20;99.90
3638;DHT22;1835;50.068;8.154;2022-12-07T08:38:46;3.40;99.90
3638;DHT22;1835;50.068;8.154;2022-12-07T08:41:34;3.40;99.90
3638;DHT22;1835;50.068;8.154;2022-12-07T08:44:02;3.40;99.90
3638;DHT22;1835;50.068;8.154;2022-12-07T08:46:33;3.40;99.90
3638;DHT22;1835;50.068;8.154;2022-12-07T08:49:09;3.40;99.90
3638;DHT22;1835;50.068;8.154;2022-12-07T08:51:40;3.50;99.90
3638;DHT22;1835;50.068;8.154;2022-12-07T08:54:11;3.50;99.90
3638;DHT22;1835;50.068;8.154;2022-12-07T08:56:44;3.60;99.90
3638;DHT22;1835;50.068;8.154;2022-12-07T08:59:14;3.50;99.90
3638;DHT22;1835;50.068;8.154;2022-12-07T09:01:43;3.60;99.90
3638;DHT22;1835;50.068;8.154;2022-12-07T09:04:13;3.60;99.90
3638;DHT22;1835;50.068;8.154;2022-12-07T09:06:42;3.80;99.90
3638;DHT22;1835;50.068;8.154;2022-12-07T09:09:11;3.80;99.90
3638;DHT22;1835;50.068;8.154;2022-12-07T09:11:39;4.00;99.90
3638;DHT22;1835;50.068;8.154;2022-12-07T09:14:09;4.50;99.90
3638;DHT22;1835;50.068;8.154;2022-12-07T09:16:37;5.20;99.90
3638;DHT22;1835;50.068;8.154;2022-12-07T09:19:05;5.20;99.90
3638;DHT22;1835;50.068;8.154;2022-12-07T09:21:37;5.20;99.90
3638;DHT22;1835;50.068;8.154;2022-12-07T09:24:05;5.30;99.90
3638;DHT22;1835;50.068;8.154;2022-12-07T09:26:34;5.30;99.90
3638;DHT22;1835;50.068;8.154;2022-12-07T09:29:02;5.60;99.90
3638;DHT22;1835;50.068;8.154;2022-12-07T09:31:31;6.20;99.90
3638;DHT22;1835;50.068;8.154;2022-12-07T09:34:00;6.40;99.90
3638;DHT22;1835;50.068;8.154;2022-12-07T09:40:29;7.30;99.90
3638;DHT22;1835;50.068;8.154;2022-12-07T09:42:57;7.60;99.90
3638;DHT22;1835;50.068;8.154;2022-12-07T09:45:30;7.20;99.90
3638;DHT22;1835;50.068;8.154;2022-12-07T09:48:02;7.30;99.90
3638;DHT22;1835;50.068;8.154;2022-12-07T09:50:31;7.00;99.90
3638;DHT22;1835;50.068;8.154;2022-12-07T09:53:05;7.00;99.90
3638;DHT22;1835;50.068;8.154;2022-12-07T09:55:38;6.90;99.90
3638;DHT22;1835;50.068;8.154;2022-12-07T09:58:12;6.60;99.90
3638;DHT22;1835;50.068;8.154;2022-12-07T10:00:47;6.50;99.90
3638;DHT22;1835;50.068;8.154;2022-12-07T10:03:16;6.80;99.90
3638;DHT22;1835;50.068;8.154;2022-12-07T10:05:46;7.00;99.90
3638;DHT22;1835;50.068;8.154;2022-12-07T10:08:16;7.30;99.90
3638;DHT22;1835;50.068;8.154;2022-12-07T10:10:50;8.00;99.90
3638;DHT22;1835;50.068;8.154;2022-12-07T10:13:20;8.60;99.90
3638;DHT22;1835;50.068;8.154;2022-12-07T10:15:51;9.10;99.90
3638;DHT22;1835;50.068;8.154;2022-12-07T10:18:27;9.30;99.90
3638;DHT22;1835;50.068;8.154;2022-12-07T10:21:08;9.00;99.90
3638;DHT22;1835;50.068;8.154;2022-12-07T10:23:40;9.30;99.90
3638;DHT22;1835;50.068;8.154;2022-12-07T10:26:29;9.90;99.90
3638;DHT22;1835;50.068;8.154;2022-12-07T10:29:15;10.40;99.90
3638;DHT22;1835;50.068;8.154;2022-12-07T10:31:45;11.30;99.90
3638;DHT22;1835;50.068;8.154;2022-12-07T10:34:22;11.00;99.90
3638;DHT22;1835;50.068;8.154;2022-12-07T10:36:53;11.50;99.90
3638;DHT22;1835;50.068;8.154;2022-12-07T10:39:23;11.90;99.90
3638;DHT22;1835;50.068;8.154;2022-12-07T10:41:57;11.70;99.90
3638;DHT22;1835;50.068;8.154;2022-12-07T10:44:27;11.40;99.90
3638;DHT22;1835;50.068;8.154;2022-12-07T10:47:20;10.90;99.90
3638;DHT22;1835;50.068;8.154;2022-12-07T10:53:35;9.50;99.90
3638;DHT22;1835;50.068;8.154;2022-12-07T10:56:33;9.20;99.90
3638;DHT22;1835;50.068;8.154;2022-12-07T10:59:36;8.80;99.90
3638;DHT22;1835;50.068;8.154;2022-12-07T11:02:23;9.20;99.90
3638;DHT22;1835;50.068;8.154;2022-12-07T11:05:02;9.30;99.90
3638;DHT22;1835;50.068;8.154;2022-12-07T11:07:43;8.60;99.90
3638;DHT22;1835;50.068;8.154;2022-12-07T11:10:25;8.70;99.90
3638;DHT22;1835;50.068;8.154;2022-12-07T11:13:11;8.60;99.90
3638;DHT22;1835;50.068;8.154;2022-12-07T11:16:07;8.70;99.90
3638;DHT22;1835;50.068;8.154;2022-12-07T11:19:04;8.60;99.90
3638;DHT22;1835;50.068;8.154;2022-12-07T11:21:46;8.60;99.90
3638;DHT22;1835;50.068;8.154;2022-12-07T11:24:20;8.10;99.90
3638;DHT22;1835;50.068;8.154;2022-12-07T11:27:11;8.10;99.90
3638;DHT22;1835;50.068;8.154;2022-12-07T11:30:03;7.80;99.90
3638;DHT22;1835;50.068;8.154;2022-12-07T11:32:51;8.10;99.90
3638;DHT22;1835;50.068;8.154;2022-12-07T11:35:35;8.40;99.90
3638;DHT22;1835;50.068;8.154;2022-12-07T11:38:12;8.90;99.90
3638;DHT22;1835;50.068;8.154;2022-12-07T11:40:48;9.40;99.90
3638;DHT22;1835;50.068;8.154;2022-12-07T11:43:21;10.10;99.90
3638;DHT22;1835;50.068;8.154;2022-12-07T11:45:56;10.20;99.90
3638;DHT22;1835;50.068;8.154;2022-12-07T11:48:33;9.90;99.90
3638;DHT22;1835;50.068;8.154;2022-12-07T11:51:02;9.30;99.90
3638;DHT22;1835;50.068;8.154;2022-12-07T11:53:35;8.90;99.90
3638;DHT22;1835;50.068;8.154;2022-12-07T11:56:10;8.80;99.90
3638;DHT22;1835;50.068;8.154;2022-12-07T11:58:47;8.50;99.90
3638;DHT22;1835;50.068;8.154;2022-12-07T12:01:29;7.90;99.90
3638;DHT22;1835;50.068;8.154;2022-12-07T12:04:10;8.00;99.90
3638;DHT22;1835;50.068;8.154;2022-12-07T12:06:45;8.00;99.90
3638;DHT22;1835;50.068;8.154;2022-12-07T12:09:16;7.60;99.90
3638;DHT22;1835;50.068;8.154;2022-12-07T12:12:18;7.60;99.90
3638;DHT22;1835;50.068;8.154;2022-12-07T12:15:27;7.50;99.90
3638;DHT22;1835;50.068;8.154;2022-12-07T12:18:12;7.70;99.90
3638;DHT22;1835;50.068;8.154;2022-12-07T12:20:50;8.30;99.90
3638;DHT22;1835;50.068;8.154;2022-12-07T12:23:24;8.80;99.90
3638;DHT22;1835;50.068;8.154;2022-12-07T12:25:57;9.70;99.90
3638;DHT22;1835;50.068;8.154;2022-12-07T12:28:29;9.80;99.90
3638;DHT22;1835;50.068;8.154;2022-12-07T12:31:07;10.20;99.90
3638;DHT22;1835;50.068;8.154;2022-12-07T12:33:38;10.10;99.90
3638;DHT22;1835;50.068;8.154;2022-12-07T12:36:23;10.10;99.90
3638;DHT22;1835;50.068;8.154;2022-12-07T12:39:09;10.00;99.90
3638;DHT22;1835;50.068;8.154;2022-12-07T12:41:57;9.90;99.90
3638;DHT22;1835;50.068;8.154;2022-12-07T12:47:58;9.20;99.90
3638;DHT22;1835;50.068;8.154;2022-12-07T12:50:29;8.70;99.90
3638;DHT22;1835;50.068;8.154;2022-12-07T12:53:03;8.30;99.90
3638;DHT22;1835;50.068;8.154;2022-12-07T12:56:09;8.00;99.90
3638;DHT22;1835;50.068;8.154;2022-12-07T12:58:43;7.70;99.90
3638;DHT22;1835;50.068;8.154;2022-12-07T13:01:41;7.80;99.90
3638;DHT22;1835;50.068;8.154;2022-12-07T13:07:51;7.90;99.90
3638;DHT22;1835;50.068;8.154;2022-12-07T13:10:41;8.00;99.90
3638;DHT22;1835;50.068;8.154;2022-12-07T13:13:30;8.00;99.90
3638;DHT22;1835;50.068;8.154;2022-12-07T13:22:40;7.90;99.90
3638;DHT22;1835;50.068;8.154;2022-12-07T13:25:17;7.70;99.90
3638;DHT22;1835;50.068;8.154;2022-12-07T13:27:54;8.00;99.90
3638;DHT22;1835;50.068;8.154;2022-12-07T13:30:29;8.00;99.90
3638;DHT22;1835;50.068;8.154;2022-12-07T13:32:58;8.00;99.90
3638;DHT22;1835;50.068;8.154;2022-12-07T13:35:29;7.90;99.90
3638;DHT22;1835;50.068;8.154;2022-12-07T13:37:58;7.80;99.90
3638;DHT22;1835;50.068;8.154;2022-12-07T13:40:26;7.70;99.90
3638;DHT22;1835;50.068;8.154;2022-12-07T13:43:00;7.70;99.90
3638;DHT22;1835;50.068;8.154;2022-12-07T13:45:31;7.70;99.90
3638;DHT22;1835;50.068;8.154;2022-12-07T13:48:21;8.00;99.90
3638;DHT22;1835;50.068;8.154;2022-12-07T13:50:54;7.60;99.90
3638;DHT22;1835;50.068;8.154;2022-12-07T13:53:22;7.70;99.90
3638;DHT22;1835;50.068;8.154;2022-12-07T13:55:51;7.70;99.90
3638;DHT22;1835;50.068;8.154;2022-12-07T13:58:22;7.50;99.90
3638;DHT22;1835;50.068;8.154;2022-12-07T14:00:50;7.50;99.90
3638;DHT22;1835;50.068;8.154;2022-12-07T14:03:36;7.30;99.90
3638;DHT22;1835;50.068;8.154;2022-12-07T14:06:24;7.30;99.90
3638;DHT22;1835;50.068;8.154;2022-12-07T14:09:15;7.60;99.90
3638;DHT22;1835;50.068;8.154;2022-12-07T14:11:46;7.50;99.90
3638;DHT22;1835;50.068;8.154;2022-12-07T14:14:19;7.30;99.90
3638;DHT22;1835;50.068;8.154;2022-12-07T14:17:00;7.30;99.90
3638;DHT22;1835;50.068;8.154;2022-12-07T14:19:48;7.70;99.90
3638;DHT22;1835;50.068;8.154;2022-12-07T14:22:29;7.30;99.90
3638;DHT22;1835;50.068;8.154;2022-12-07T14:25:18;7.30;99.90
3638;DHT22;1835;50.068;8.154;2022-12-07T14:27:50;7.30;99.90
3638;DHT22;1835;50.068;8.154;2022-12-07T14:30:25;7.10;99.90
3638;DHT22;1835;50.068;8.154;2022-12-07T14:32:57;7.20;99.90
3638;DHT22;1835;50.068;8.154;2022-12-07T14:35:28;7.00;99.90
3638;DHT22;1835;50.068;8.154;2022-12-07T14:37:56;7.10;99.90
3638;DHT22;1835;50.068;8.154;2022-12-07T14:40:26;7.10;99.90
3638;DHT22;1835;50.068;8.154;2022-12-07T14:42:59;6.90;99.90
3638;DHT22;1835;50.068;8.154;2022-12-07T14:45:30;6.50;99.90
3638;DHT22;1835;50.068;8.154;2022-12-07T14:47:58;6.40;99.90
3638;DHT22;1835;50.068;8.154;2022-12-07T14:50:50;6.10;99.90
3638;DHT22;1835;50.068;8.154;2022-12-07T14:53:41;5.80;99.90
3638;DHT22;1835;50.068;8.154;2022-12-07T14:56:15;5.90;99.90
3638;DHT22;1835;50.068;8.154;2022-12-07T14:58:43;6.10;99.90
3638;DHT22;1835;50.068;8.154;2022-12-07T15:01:16;6.10;99.90
3638;DHT22;1835;50.068;8.154;2022-12-07T15:03:44;6.20;99.90
3638;DHT22;1835;50.068;8.154;2022-12-07T15:06:14;6.40;99.90
3638;DHT22;1835;50.068;8.154;2022-12-07T15:08:44;6.30;99.90
3638;DHT22;1835;50.068;8.154;2022-12-07T15:11:13;6.00;99.90
3638;DHT22;1835;50.068;8.154;2022-12-07T15:13:41;6.00;99.90
3638;DHT22;1835;50.068;8.154;2022-12-07T15:16:28;6.00;99.90
3638;DHT22;1835;50.068;8.154;2022-12-07T15:19:18;6.10;99.90
3638;DHT22;1835;50.068;8.154;2022-12-07T15:21:54;6.00;99.90
3638;DHT22;1835;50.068;8.154;2022-12-07T15:24:23;6.20;99.90
3638;DHT22;1835;50.068;8.154;2022-12-07T15:26:51;6.20;99.90
3638;DHT22;1835;50.068;8.154;2022-12-07T15:29:20;6.30;99.90
3638;DHT22;1835;50.068;8.154;2022-12-07T15:31:51;6.20;99.90
3638;DHT22;1835;50.068;8.154;2022-12-07T15:34:24;6.30;99.90
3638;DHT22;1835;50.068;8.154;2022-12-07T15:37:01;6.50;99.90
3638;DHT22;1835;50.068;8.154;2022-12-07T15:39:30;6.50;99.90
3638;DHT22;1835;50.068;8.154;2022-12-07T15:41:58;6.50;99.90
3638;DHT22;1835;50.068;8.154;2022-12-07T15:44:26;6.20;99.90
3638;DHT22;1835;50.068;8.154;2022-12-07T15:47:13;6.10;99.90
3638;DHT22;1835;50.068;8.154;2022-12-07T15:49:41;6.00;99.90
3638;DHT22;1835;50.068;8.154;2022-12-07T15:52:11;6.00;99.90
3638;DHT22;1835;50.068;8.154;2022-12-07T15:54:39;5.60;99.90
3638;DHT22;1835;50.068;8.154;2022-12-07T15:57:07;5.50;99.90
3638;DHT22;1835;50.068;8.154;2022-12-07T15:59:53;5.50;99.90
3638;DHT22;1835;50.068;8.154;2022-12-07T16:02:22;5.40;99.90
3638;DHT22;1835;50.068;8.154;2022-12-07T16:04:51;5.20;99.90
3638;DHT22;1835;50.068;8.154;2022-12-07T16:07:19;5.20;99.90
3638;DHT22;1835;50.068;8.154;2022-12-07T16:09:48;5.20;99.90
3638;DHT22;1835;50.068;8.154;2022-12-07T16:12:17;5.10;99.90
3638;DHT22;1835;50.068;8.154;2022-12-07T16:14:45;4.90;99.90
3638;DHT22;1835;50.068;8.154;2022-12-07T16:17:13;4.90;99.90
3638;DHT22;1835;50.068;8.154;2022-12-07T16:19:42;4.70;99.90
3638;DHT22;1835;50.068;8.154;2022-12-07T16:22:10;4.50;99.90
3638;DHT22;1835;50.068;8.154;2022-12-07T16:24:38;4.50;99.90
3638;DHT22;1835;50.068;8.154;2022-12-07T16:27:06;4.40;99.90
3638;DHT22;1835;50.068;8.154;2022-12-07T16:29:34;4.20;99.90
3638;DHT22;1835;50.068;8.154;2022-12-07T16:32:03;4.10;99.90
3638;DHT22;1835;50.068;8.154;2022-12-07T16:34:32;4.00;99.90
3638;DHT22;1835;50.068;8.154;2022-12-07T16:37:06;3.90;99.90
3638;DHT22;1835;50.068;8.154;2022-12-07T16:39:34;3.80;99.90
3638;DHT22;1835;50.068;8.154;2022-12-07T16:42:02;3.80;99.90
3638;DHT22;1835;50.068;8.154;2022-12-07T16:44:31;3.80;99.90
3638;DHT22;1835;50.068;8.154;2022-12-07T16:46:59;3.80;99.90
3638;DHT22;1835;50.068;8.154;2022-12-07T16:49:28;3.70;99.90
3638;DHT22;1835;50.068;8.154;2022-12-07T16:51:56;3.70;99.90
3638;DHT22;1835;50.068;8.154;2022-12-07T16:54:46;3.60;99.90
3638;DHT22;1835;50.068;8.154;2022-12-07T16:57:16;3.50;99.90
3638;DHT22;1835;50.068;8.154;2022-12-07T16:59:50;3.50;99.90
3638;DHT22;1835;50.068;8.154;2022-12-07T17:02:19;3.50;99.90
3638;DHT22;1835;50.068;8.154;2022-12-07T17:04:47;3.50;99.90
3638;DHT22;1835;50.068;8.154;2022-12-07T17:07:15;3.70;99.90
3638;DHT22;1835;50.068;8.154;2022-12-07T17:09:44;3.60;99.90
3638;DHT22;1835;50.068;8.154;2022-12-07T17:12:14;3.60;99.90
3638;DHT22;1835;50.068;8.154;2022-12-07T17:14:42;3.50;99.90
3638;DHT22;1835;50.068;8.154;2022-12-07T17:17:28;3.50;99.90
3638;DHT22;1835;50.068;8.154;2022-12-07T17:19:56;3.60;99.90
3638;DHT22;1835;50.068;8.154;2022-12-07T17:22:25;3.50;99.90